sensor_id;sensor_type;location;lat;lon;timestamp;temperature;humidity
60313;DHT22;46158;52.850;6.970;2022-12-10T00:01:42;12.70;77.00
60313;DHT22;46158;52.850;6.970;2022-12-10T00:04:10;12.60;77.10
60313;DHT22;46158;52.850;6.970;2022-12-10T00:06:39;12.60;77.20
60313;DHT22;46158;52.850;6.970;2022-12-10T00:09:11;12.60;77.00
60313;DHT22;46158;52.850;6.970;2022-12-10T00:11:38;12.60;76.90
60313;DHT22;46158;52.850;6.970;2022-12-10T00:14:09;12.60;76.90
60313;DHT22;46158;52.850;6.970;2022-12-10T00:16:39;12.60;76.70
60313;DHT22;46158;52.850;6.970;2022-12-10T00:19:06;12.60;76.70
60313;DHT22;46158;52.850;6.970;2022-12-10T00:21:37;12.50;76.60
60313;DHT22;46158;52.850;6.970;2022-12-10T00:24:04;12.50;76.50
60313;DHT22;46158;52.850;6.970;2022-12-10T00:26:35;12.50;76.50
60313;DHT22;46158;52.850;6.970;2022-12-10T00:29:38;12.50;76.40
60313;DHT22;46158;52.850;6.970;2022-12-10T00:32:07;12.50;76.30
60313;DHT22;46158;52.850;6.970;2022-12-10T00:34:42;12.40;76.30
60313;DHT22;46158;52.850;6.970;2022-12-10T00:37:08;12.50;76.20
60313;DHT22;46158;52.850;6.970;2022-12-10T00:39:34;12.40;76.20
60313;DHT22;46158;52.850;6.970;2022-12-10T00:42:02;12.40;76.80
60313;DHT22;46158;52.850;6.970;2022-12-10T00:44:28;12.40;76.10
60313;DHT22;46158;52.850;6.970;2022-12-10T00:46:59;12.30;76.00
60313;DHT22;46158;52.850;6.970;2022-12-10T00:49:25;12.40;76.00
60313;DHT22;46158;52.850;6.970;2022-12-10T00:51:51;12.30;75.90
60313;DHT22;46158;52.850;6.970;2022-12-10T00:54:17;12.30;75.90
60313;DHT22;46158;52.850;6.970;2022-12-10T00:56:43;12.30;75.80
60313;DHT22;46158;52.850;6.970;2022-12-10T00:59:09;12.30;75.80
60313;DHT22;46158;52.850;6.970;2022-12-10T01:01:37;12.20;75.70
60313;DHT22;46158;52.850;6.970;2022-12-10T01:04:12;12.20;75.70
60313;DHT22;46158;52.850;6.970;2022-12-10T01:06:46;12.20;75.60
60313;DHT22;46158;52.850;6.970;2022-12-10T01:09:15;12.20;75.70
60313;DHT22;46158;52.850;6.970;2022-12-10T01:11:43;12.20;75.60
60313;DHT22;46158;52.850;6.970;2022-12-10T01:14:17;12.10;75.50
60313;DHT22;46158;52.850;6.970;2022-12-10T01:16:44;12.20;75.50
60313;DHT22;46158;52.850;6.970;2022-12-10T01:19:16;12.10;75.40
60313;DHT22;46158;52.850;6.970;2022-12-10T01:21:50;12.10;75.30
60313;DHT22;46158;52.850;6.970;2022-12-10T01:24:16;12.10;75.30
60313;DHT22;46158;52.850;6.970;2022-12-10T01:26:42;12.00;75.40
60313;DHT22;46158;52.850;6.970;2022-12-10T01:29:10;12.00;75.70
60313;DHT22;46158;52.850;6.970;2022-12-10T01:31:43;12.00;75.40
60313;DHT22;46158;52.850;6.970;2022-12-10T01:34:25;12.00;75.40
60313;DHT22;46158;52.850;6.970;2022-12-10T01:36:55;12.00;75.20
60313;DHT22;46158;52.850;6.970;2022-12-10T01:39:32;11.90;75.20
60313;DHT22;46158;52.850;6.970;2022-12-10T01:42:00;12.00;75.20
60313;DHT22;46158;52.850;6.970;2022-12-10T01:47:06;11.90;75.10
60313;DHT22;46158;52.850;6.970;2022-12-10T01:49:38;11.90;75.10
60313;DHT22;46158;52.850;6.970;2022-12-10T01:52:09;11.90;75.70
60313;DHT22;46158;52.850;6.970;2022-12-10T01:54:42;11.90;75.00
60313;DHT22;46158;52.850;6.970;2022-12-10T01:57:21;11.90;75.00
60313;DHT22;46158;52.850;6.970;2022-12-10T01:59:59;11.80;74.90
60313;DHT22;46158;52.850;6.970;2022-12-10T02:03:00;11.80;74.90
60313;DHT22;46158;52.850;6.970;2022-12-10T02:05:29;11.80;74.80
60313;DHT22;46158;52.850;6.970;2022-12-10T02:08:26;11.70;74.90
60313;DHT22;46158;52.850;6.970;2022-12-10T02:17:27;11.70;74.80
60313;DHT22;46158;52.850;6.970;2022-12-10T02:20:06;11.70;74.80
60313;DHT22;46158;52.850;6.970;2022-12-10T02:22:57;11.70;74.80
60313;DHT22;46158;52.850;6.970;2022-12-10T02:25:34;11.70;74.70
60313;DHT22;46158;52.850;6.970;2022-12-10T02:28:30;11.60;74.70
60313;DHT22;46158;52.850;6.970;2022-12-10T02:30:56;11.60;74.60
60313;DHT22;46158;52.850;6.970;2022-12-10T02:33:26;11.60;74.70
60313;DHT22;46158;52.850;6.970;2022-12-10T02:35:53;11.60;74.60
60313;DHT22;46158;52.850;6.970;2022-12-10T02:38:45;11.60;74.60
60313;DHT22;46158;52.850;6.970;2022-12-10T02:41:18;11.60;74.50
60313;DHT22;46158;52.850;6.970;2022-12-10T02:43:46;11.60;74.60
60313;DHT22;46158;52.850;6.970;2022-12-10T02:46:14;11.50;74.50
60313;DHT22;46158;52.850;6.970;2022-12-10T02:48:41;11.50;74.50
60313;DHT22;46158;52.850;6.970;2022-12-10T02:51:07;11.50;74.50
60313;DHT22;46158;52.850;6.970;2022-12-10T02:53:33;11.50;74.40
60313;DHT22;46158;52.850;6.970;2022-12-10T02:56:25;11.50;74.40
60313;DHT22;46158;52.850;6.970;2022-12-10T02:59:10;11.50;74.40
60313;DHT22;46158;52.850;6.970;2022-12-10T03:02:09;11.50;74.40
60313;DHT22;46158;52.850;6.970;2022-12-10T03:05:00;11.40;74.30
60313;DHT22;46158;52.850;6.970;2022-12-10T03:10:48;11.40;74.40
60313;DHT22;46158;52.850;6.970;2022-12-10T03:13:17;11.30;74.20
60313;DHT22;46158;52.850;6.970;2022-12-10T03:15:47;11.40;74.40
60313;DHT22;46158;52.850;6.970;2022-12-10T03:18:15;11.30;74.20
60313;DHT22;46158;52.850;6.970;2022-12-10T03:20:45;11.30;74.20
60313;DHT22;46158;52.850;6.970;2022-12-10T03:23:15;11.30;74.20
60313;DHT22;46158;52.850;6.970;2022-12-10T03:25:42;11.30;74.10
60313;DHT22;46158;52.850;6.970;2022-12-10T03:28:09;11.30;74.20
60313;DHT22;46158;52.850;6.970;2022-12-10T03:30:36;11.30;74.20
60313;DHT22;46158;52.850;6.970;2022-12-10T03:33:05;11.30;74.10
60313;DHT22;46158;52.850;6.970;2022-12-10T03:35:31;11.30;74.10
60313;DHT22;46158;52.850;6.970;2022-12-10T03:37:57;11.20;74.00
60313;DHT22;46158;52.850;6.970;2022-12-10T03:40:24;11.30;74.10
60313;DHT22;46158;52.850;6.970;2022-12-10T03:42:50;11.20;74.10
60313;DHT22;46158;52.850;6.970;2022-12-10T03:45:16;11.20;74.00
60313;DHT22;46158;52.850;6.970;2022-12-10T03:47:42;11.20;74.00
60313;DHT22;46158;52.850;6.970;2022-12-10T03:50:09;11.20;74.10
60313;DHT22;46158;52.850;6.970;2022-12-10T03:52:35;11.20;74.00
60313;DHT22;46158;52.850;6.970;2022-12-10T03:55:01;11.20;74.00
60313;DHT22;46158;52.850;6.970;2022-12-10T03:57:27;11.10;74.00
60313;DHT22;46158;52.850;6.970;2022-12-10T03:59:53;11.10;73.90
60313;DHT22;46158;52.850;6.970;2022-12-10T04:02:19;11.10;73.90
60313;DHT22;46158;52.850;6.970;2022-12-10T04:04:44;11.10;73.90
60313;DHT22;46158;52.850;6.970;2022-12-10T04:07:11;11.10;74.00
60313;DHT22;46158;52.850;6.970;2022-12-10T04:09:45;11.00;74.10
60313;DHT22;46158;52.850;6.970;2022-12-10T04:12:21;11.10;74.20
60313;DHT22;46158;52.850;6.970;2022-12-10T04:14:50;11.00;74.10
60313;DHT22;46158;52.850;6.970;2022-12-10T04:17:34;11.00;74.10
60313;DHT22;46158;52.850;6.970;2022-12-10T04:20:00;11.00;74.20
60313;DHT22;46158;52.850;6.970;2022-12-10T04:22:26;11.00;74.10
60313;DHT22;46158;52.850;6.970;2022-12-10T04:25:16;11.00;74.10
60313;DHT22;46158;52.850;6.970;2022-12-10T04:28:05;11.00;74.00
60313;DHT22;46158;52.850;6.970;2022-12-10T04:30:31;11.00;74.10
60313;DHT22;46158;52.850;6.970;2022-12-10T04:32:57;10.90;74.00
60313;DHT22;46158;52.850;6.970;2022-12-10T04:35:23;10.90;73.90
60313;DHT22;46158;52.850;6.970;2022-12-10T04:37:49;10.90;73.90
60313;DHT22;46158;52.850;6.970;2022-12-10T04:40:15;10.90;73.90
60313;DHT22;46158;52.850;6.970;2022-12-10T04:42:40;10.90;74.00
60313;DHT22;46158;52.850;6.970;2022-12-10T04:45:06;10.90;74.10
60313;DHT22;46158;52.850;6.970;2022-12-10T04:47:32;10.90;74.10
60313;DHT22;46158;52.850;6.970;2022-12-10T04:49:59;10.90;74.10
60313;DHT22;46158;52.850;6.970;2022-12-10T04:52:25;10.90;74.00
60313;DHT22;46158;52.850;6.970;2022-12-10T04:54:51;10.90;74.00
60313;DHT22;46158;52.850;6.970;2022-12-10T04:57:16;10.80;73.90
60313;DHT22;46158;52.850;6.970;2022-12-10T04:59:42;10.90;73.90
60313;DHT22;46158;52.850;6.970;2022-12-10T05:02:09;10.80;73.80
60313;DHT22;46158;52.850;6.970;2022-12-10T05:04:40;10.80;73.80
60313;DHT22;46158;52.850;6.970;2022-12-10T05:07:06;10.80;73.80
60313;DHT22;46158;52.850;6.970;2022-12-10T05:09:32;10.80;73.80
60313;DHT22;46158;52.850;6.970;2022-12-10T05:11:58;10.80;73.80
60313;DHT22;46158;52.850;6.970;2022-12-10T05:14:23;10.80;73.80
60313;DHT22;46158;52.850;6.970;2022-12-10T05:16:52;10.80;73.90
60313;DHT22;46158;52.850;6.970;2022-12-10T05:19:21;10.70;73.90
60313;DHT22;46158;52.850;6.970;2022-12-10T05:21:49;10.80;74.10
60313;DHT22;46158;52.850;6.970;2022-12-10T05:24:33;10.70;74.10
60313;DHT22;46158;52.850;6.970;2022-12-10T05:26:59;10.70;74.00
60313;DHT22;46158;52.850;6.970;2022-12-10T05:29:25;10.70;74.00
60313;DHT22;46158;52.850;6.970;2022-12-10T05:31:51;10.70;73.90
60313;DHT22;46158;52.850;6.970;2022-12-10T05:34:17;10.70;73.90
60313;DHT22;46158;52.850;6.970;2022-12-10T05:36:43;10.70;73.90
60313;DHT22;46158;52.850;6.970;2022-12-10T05:39:09;10.70;73.80
60313;DHT22;46158;52.850;6.970;2022-12-10T05:41:37;10.70;73.80
60313;DHT22;46158;52.850;6.970;2022-12-10T05:44:03;10.60;73.80
60313;DHT22;46158;52.850;6.970;2022-12-10T05:46:39;10.60;73.70
60313;DHT22;46158;52.850;6.970;2022-12-10T05:49:06;10.70;74.40
60313;DHT22;46158;52.850;6.970;2022-12-10T05:51:33;10.60;73.80
60313;DHT22;46158;52.850;6.970;2022-12-10T05:54:00;10.60;73.90
60313;DHT22;46158;52.850;6.970;2022-12-10T05:56:30;10.60;73.90
60313;DHT22;46158;52.850;6.970;2022-12-10T05:59:01;10.60;74.00
60313;DHT22;46158;52.850;6.970;2022-12-10T06:01:31;10.60;74.00
60313;DHT22;46158;52.850;6.970;2022-12-10T06:03:58;10.60;74.00
60313;DHT22;46158;52.850;6.970;2022-12-10T06:06:28;10.60;74.00
60313;DHT22;46158;52.850;6.970;2022-12-10T06:08:54;10.50;74.50
60313;DHT22;46158;52.850;6.970;2022-12-10T06:11:20;10.60;73.90
60313;DHT22;46158;52.850;6.970;2022-12-10T06:13:47;10.50;73.80
60313;DHT22;46158;52.850;6.970;2022-12-10T06:16:14;10.50;73.70
60313;DHT22;46158;52.850;6.970;2022-12-10T06:18:40;10.50;73.70
60313;DHT22;46158;52.850;6.970;2022-12-10T06:21:12;10.50;73.70
60313;DHT22;46158;52.850;6.970;2022-12-10T06:23:39;10.50;73.70
60313;DHT22;46158;52.850;6.970;2022-12-10T06:26:07;10.50;73.80
60313;DHT22;46158;52.850;6.970;2022-12-10T06:28:33;10.50;74.00
60313;DHT22;46158;52.850;6.970;2022-12-10T06:30:59;10.50;74.00
60313;DHT22;46158;52.850;6.970;2022-12-10T06:33:26;10.50;74.10
60313;DHT22;46158;52.850;6.970;2022-12-10T06:35:52;10.50;74.10
60313;DHT22;46158;52.850;6.970;2022-12-10T06:38:18;10.50;74.00
60313;DHT22;46158;52.850;6.970;2022-12-10T06:40:44;10.50;74.30
60313;DHT22;46158;52.850;6.970;2022-12-10T06:43:10;10.50;74.40
60313;DHT22;46158;52.850;6.970;2022-12-10T06:45:39;10.60;74.60
60313;DHT22;46158;52.850;6.970;2022-12-10T06:48:05;10.60;74.70
60313;DHT22;46158;52.850;6.970;2022-12-10T06:50:31;10.60;74.70
60313;DHT22;46158;52.850;6.970;2022-12-10T06:52:57;10.60;74.70
60313;DHT22;46158;52.850;6.970;2022-12-10T06:55:23;10.60;74.70
60313;DHT22;46158;52.850;6.970;2022-12-10T06:57:53;10.60;74.60
60313;DHT22;46158;52.850;6.970;2022-12-10T07:00:20;10.70;74.60
60313;DHT22;46158;52.850;6.970;2022-12-10T07:02:49;10.70;74.60
60313;DHT22;46158;52.850;6.970;2022-12-10T07:05:18;10.70;74.50
60313;DHT22;46158;52.850;6.970;2022-12-10T07:07:43;10.70;74.50
60313;DHT22;46158;52.850;6.970;2022-12-10T07:10:09;10.70;74.40
60313;DHT22;46158;52.850;6.970;2022-12-10T07:12:35;10.70;74.50
60313;DHT22;46158;52.850;6.970;2022-12-10T07:15:02;10.70;74.60
60313;DHT22;46158;52.850;6.970;2022-12-10T07:17:27;10.70;74.60
60313;DHT22;46158;52.850;6.970;2022-12-10T07:20:03;10.70;74.60
60313;DHT22;46158;52.850;6.970;2022-12-10T07:22:29;10.80;74.50
60313;DHT22;46158;52.850;6.970;2022-12-10T07:24:55;10.70;74.50
60313;DHT22;46158;52.850;6.970;2022-12-10T07:27:21;10.80;74.70
60313;DHT22;46158;52.850;6.970;2022-12-10T07:29:47;10.80;74.80
60313;DHT22;46158;52.850;6.970;2022-12-10T07:32:12;10.80;74.80
60313;DHT22;46158;52.850;6.970;2022-12-10T07:34:41;10.80;75.60
60313;DHT22;46158;52.850;6.970;2022-12-10T07:37:15;10.80;75.00
60313;DHT22;46158;52.850;6.970;2022-12-10T07:39:41;10.80;75.00
60313;DHT22;46158;52.850;6.970;2022-12-10T07:42:08;10.80;75.10
60313;DHT22;46158;52.850;6.970;2022-12-10T07:44:37;10.80;75.20
60313;DHT22;46158;52.850;6.970;2022-12-10T07:47:10;10.80;75.20
60313;DHT22;46158;52.850;6.970;2022-12-10T07:49:45;10.80;76.00
60313;DHT22;46158;52.850;6.970;2022-12-10T07:52:16;10.90;75.50
60313;DHT22;46158;52.850;6.970;2022-12-10T07:54:45;10.80;75.50
60313;DHT22;46158;52.850;6.970;2022-12-10T07:57:12;10.80;75.70
60313;DHT22;46158;52.850;6.970;2022-12-10T07:59:45;10.90;75.80
60313;DHT22;46158;52.850;6.970;2022-12-10T08:02:12;10.90;75.90
60313;DHT22;46158;52.850;6.970;2022-12-10T08:04:42;10.90;76.10
60313;DHT22;46158;52.850;6.970;2022-12-10T08:07:16;10.90;76.10
60313;DHT22;46158;52.850;6.970;2022-12-10T08:09:46;10.90;76.10
60313;DHT22;46158;52.850;6.970;2022-12-10T08:12:25;10.90;76.20
60313;DHT22;46158;52.850;6.970;2022-12-10T08:14:56;10.90;76.20
60313;DHT22;46158;52.850;6.970;2022-12-10T08:17:21;10.90;76.30
60313;DHT22;46158;52.850;6.970;2022-12-10T08:19:50;11.00;76.30
60313;DHT22;46158;52.850;6.970;2022-12-10T08:22:20;11.00;76.20
60313;DHT22;46158;52.850;6.970;2022-12-10T08:24:46;11.00;76.00
60313;DHT22;46158;52.850;6.970;2022-12-10T08:27:12;11.00;76.20
60313;DHT22;46158;52.850;6.970;2022-12-10T08:29:38;11.10;76.50
60313;DHT22;46158;52.850;6.970;2022-12-10T08:32:04;11.10;76.60
60313;DHT22;46158;52.850;6.970;2022-12-10T08:34:33;11.20;76.80
60313;DHT22;46158;52.850;6.970;2022-12-10T08:36:58;11.20;77.00
60313;DHT22;46158;52.850;6.970;2022-12-10T08:39:24;11.20;77.20
60313;DHT22;46158;52.850;6.970;2022-12-10T08:41:50;11.30;78.10
60313;DHT22;46158;52.850;6.970;2022-12-10T08:44:17;11.30;77.60
60313;DHT22;46158;52.850;6.970;2022-12-10T08:46:42;11.40;77.90
60313;DHT22;46158;52.850;6.970;2022-12-10T08:49:08;11.40;78.00
60313;DHT22;46158;52.850;6.970;2022-12-10T08:51:34;11.40;78.10
60313;DHT22;46158;52.850;6.970;2022-12-10T08:54:00;11.50;78.20
60313;DHT22;46158;52.850;6.970;2022-12-10T08:56:26;11.50;78.20
60313;DHT22;46158;52.850;6.970;2022-12-10T08:58:51;11.60;78.30
60313;DHT22;46158;52.850;6.970;2022-12-10T09:01:18;11.70;78.30
60313;DHT22;46158;52.850;6.970;2022-12-10T09:03:44;11.70;78.30
60313;DHT22;46158;52.850;6.970;2022-12-10T09:06:13;11.70;78.30
60313;DHT22;46158;52.850;6.970;2022-12-10T09:08:39;11.80;78.30
60313;DHT22;46158;52.850;6.970;2022-12-10T09:11:10;11.90;78.40
60313;DHT22;46158;52.850;6.970;2022-12-10T09:13:37;11.90;78.40
60313;DHT22;46158;52.850;6.970;2022-12-10T09:16:03;12.00;78.40
60313;DHT22;46158;52.850;6.970;2022-12-10T09:18:29;12.00;78.40
60313;DHT22;46158;52.850;6.970;2022-12-10T09:20:54;12.00;78.40
60313;DHT22;46158;52.850;6.970;2022-12-10T09:23:20;12.10;78.30
60313;DHT22;46158;52.850;6.970;2022-12-10T09:25:46;12.10;78.40
60313;DHT22;46158;52.850;6.970;2022-12-10T09:28:13;12.10;78.50
60313;DHT22;46158;52.850;6.970;2022-12-10T09:30:39;12.20;78.70
60313;DHT22;46158;52.850;6.970;2022-12-10T09:33:04;12.20;78.80
60313;DHT22;46158;52.850;6.970;2022-12-10T09:35:30;12.20;78.80
60313;DHT22;46158;52.850;6.970;2022-12-10T09:37:56;12.20;78.90
60313;DHT22;46158;52.850;6.970;2022-12-10T09:40:32;12.30;79.10
60313;DHT22;46158;52.850;6.970;2022-12-10T09:43:26;12.30;79.30
60313;DHT22;46158;52.850;6.970;2022-12-10T09:53:36;12.30;79.60
60313;DHT22;46158;52.850;6.970;2022-12-10T09:56:03;12.40;79.60
60313;DHT22;46158;52.850;6.970;2022-12-10T09:58:29;12.40;79.80
60313;DHT22;46158;52.850;6.970;2022-12-10T10:01:03;12.40;79.80
60313;DHT22;46158;52.850;6.970;2022-12-10T10:03:37;12.40;79.80
60313;DHT22;46158;52.850;6.970;2022-12-10T10:06:03;12.50;79.90
60313;DHT22;46158;52.850;6.970;2022-12-10T10:08:42;12.40;80.00
60313;DHT22;46158;52.850;6.970;2022-12-10T10:11:20;12.50;80.10
60313;DHT22;46158;52.850;6.970;2022-12-10T10:14:04;12.50;80.20
60313;DHT22;46158;52.850;6.970;2022-12-10T10:16:35;12.50;80.30
60313;DHT22;46158;52.850;6.970;2022-12-10T10:19:11;12.50;80.30
60313;DHT22;46158;52.850;6.970;2022-12-10T10:21:41;12.60;80.30
60313;DHT22;46158;52.850;6.970;2022-12-10T10:24:19;12.60;80.30
60313;DHT22;46158;52.850;6.970;2022-12-10T10:26:45;12.60;80.20
60313;DHT22;46158;52.850;6.970;2022-12-10T10:29:14;12.60;80.20
60313;DHT22;46158;52.850;6.970;2022-12-10T10:31:42;12.60;80.10
60313;DHT22;46158;52.850;6.970;2022-12-10T10:34:20;12.60;80.00
60313;DHT22;46158;52.850;6.970;2022-12-10T10:36:47;12.60;79.80
60313;DHT22;46158;52.850;6.970;2022-12-10T10:39:24;12.60;79.90
60313;DHT22;46158;52.850;6.970;2022-12-10T10:41:54;12.60;79.80
60313;DHT22;46158;52.850;6.970;2022-12-10T10:44:22;12.60;79.80
60313;DHT22;46158;52.850;6.970;2022-12-10T10:46:50;12.70;79.90
60313;DHT22;46158;52.850;6.970;2022-12-10T10:49:29;12.70;79.80
60313;DHT22;46158;52.850;6.970;2022-12-10T10:52:12;12.70;79.90
60313;DHT22;46158;52.850;6.970;2022-12-10T10:54:41;12.70;80.00
60313;DHT22;46158;52.850;6.970;2022-12-10T10:57:32;12.70;80.30
60313;DHT22;46158;52.850;6.970;2022-12-10T11:00:10;12.70;80.30
60313;DHT22;46158;52.850;6.970;2022-12-10T11:02:42;12.70;80.50
60313;DHT22;46158;52.850;6.970;2022-12-10T11:05:20;12.70;80.50
60313;DHT22;46158;52.850;6.970;2022-12-10T11:07:47;12.70;80.50
60313;DHT22;46158;52.850;6.970;2022-12-10T11:10:22;12.80;80.60
60313;DHT22;46158;52.850;6.970;2022-12-10T11:13:06;12.80;80.60
60313;DHT22;46158;52.850;6.970;2022-12-10T11:15:37;12.90;80.70
60313;DHT22;46158;52.850;6.970;2022-12-10T11:18:39;12.90;80.80
60313;DHT22;46158;52.850;6.970;2022-12-10T11:23:44;12.90;80.80
60313;DHT22;46158;52.850;6.970;2022-12-10T11:31:50;13.00;80.70
60313;DHT22;46158;52.850;6.970;2022-12-10T11:37:33;13.00;80.70
60313;DHT22;46158;52.850;6.970;2022-12-10T11:40:06;13.10;80.30
60313;DHT22;46158;52.850;6.970;2022-12-10T11:45:27;13.10;80.10
60313;DHT22;46158;52.850;6.970;2022-12-10T11:48:19;13.00;80.20
60313;DHT22;46158;52.850;6.970;2022-12-10T12:07:26;13.00;79.70
60313;DHT22;46158;52.850;6.970;2022-12-10T12:15:52;13.00;79.70
60313;DHT22;46158;52.850;6.970;2022-12-10T12:21:10;12.90;79.80
60313;DHT22;46158;52.850;6.970;2022-12-10T12:23:46;12.90;80.00
60313;DHT22;46158;52.850;6.970;2022-12-10T12:26:42;12.90;80.10
60313;DHT22;46158;52.850;6.970;2022-12-10T12:32:17;12.90;80.30
60313;DHT22;46158;52.850;6.970;2022-12-10T12:35:01;12.90;80.30
60313;DHT22;46158;52.850;6.970;2022-12-10T12:37:38;12.90;80.40
60313;DHT22;46158;52.850;6.970;2022-12-10T12:40:42;12.90;80.50
60313;DHT22;46158;52.850;6.970;2022-12-10T12:43:24;13.00;80.50
60313;DHT22;46158;52.850;6.970;2022-12-10T12:45:54;12.90;80.50
60313;DHT22;46158;52.850;6.970;2022-12-10T12:48:45;13.00;80.60
60313;DHT22;46158;52.850;6.970;2022-12-10T12:51:22;12.90;80.50
60313;DHT22;46158;52.850;6.970;2022-12-10T12:53:49;12.90;80.60
60313;DHT22;46158;52.850;6.970;2022-12-10T12:57:06;12.90;80.60
60313;DHT22;46158;52.850;6.970;2022-12-10T13:00:00;12.90;80.40
60313;DHT22;46158;52.850;6.970;2022-12-10T13:05:25;12.90;80.40
60313;DHT22;46158;52.850;6.970;2022-12-10T13:15:42;12.80;80.00
60313;DHT22;46158;52.850;6.970;2022-12-10T13:20:40;12.80;79.90
60313;DHT22;46158;52.850;6.970;2022-12-10T13:30:41;12.70;79.70
60313;DHT22;46158;52.850;6.970;2022-12-10T13:33:14;12.70;79.70
60313;DHT22;46158;52.850;6.970;2022-12-10T13:35:42;12.70;79.70
60313;DHT22;46158;52.850;6.970;2022-12-10T13:38:22;12.70;79.70
60313;DHT22;46158;52.850;6.970;2022-12-10T13:41:01;12.70;79.70
60313;DHT22;46158;52.850;6.970;2022-12-10T13:43:52;12.60;79.60
60313;DHT22;46158;52.850;6.970;2022-12-10T13:49:25;12.70;80.00
60313;DHT22;46158;52.850;6.970;2022-12-10T13:51:52;12.60;80.10
60313;DHT22;46158;52.850;6.970;2022-12-10T13:57:24;12.60;80.30
60313;DHT22;46158;52.850;6.970;2022-12-10T14:03:14;12.60;80.40
60313;DHT22;46158;52.850;6.970;2022-12-10T14:07:38;12.60;80.50
60313;DHT22;46158;52.850;6.970;2022-12-10T14:10:05;12.60;80.50
60313;DHT22;46158;52.850;6.970;2022-12-10T14:12:35;12.60;80.50
60313;DHT22;46158;52.850;6.970;2022-12-10T14:15:06;12.60;80.50
60313;DHT22;46158;52.850;6.970;2022-12-10T14:17:33;12.60;79.80
60313;DHT22;46158;52.850;6.970;2022-12-10T14:19:59;12.60;80.30
60313;DHT22;46158;52.850;6.970;2022-12-10T14:22:42;12.60;80.30
60313;DHT22;46158;52.850;6.970;2022-12-10T14:25:11;12.60;80.30
60313;DHT22;46158;52.850;6.970;2022-12-10T14:27:37;12.60;80.30
60313;DHT22;46158;52.850;6.970;2022-12-10T14:30:04;12.60;80.30
60313;DHT22;46158;52.850;6.970;2022-12-10T14:32:34;12.60;80.30
60313;DHT22;46158;52.850;6.970;2022-12-10T14:35:00;12.60;80.30
60313;DHT22;46158;52.850;6.970;2022-12-10T14:37:28;12.60;80.40
60313;DHT22;46158;52.850;6.970;2022-12-10T14:39:55;12.60;80.40
60313;DHT22;46158;52.850;6.970;2022-12-10T14:42:22;12.60;80.50
60313;DHT22;46158;52.850;6.970;2022-12-10T14:44:51;12.60;80.50
60313;DHT22;46158;52.850;6.970;2022-12-10T14:47:19;12.60;80.50
60313;DHT22;46158;52.850;6.970;2022-12-10T14:49:49;12.60;80.60
60313;DHT22;46158;52.850;6.970;2022-12-10T14:52:19;12.60;80.50
60313;DHT22;46158;52.850;6.970;2022-12-10T14:54:46;12.60;80.50
60313;DHT22;46158;52.850;6.970;2022-12-10T14:57:14;12.60;80.50
60313;DHT22;46158;52.850;6.970;2022-12-10T15:00:23;12.60;80.50
60313;DHT22;46158;52.850;6.970;2022-12-10T15:02:33;12.60;80.60
60313;DHT22;46158;52.850;6.970;2022-12-10T15:04:59;12.60;80.60
60313;DHT22;46158;52.850;6.970;2022-12-10T15:07:26;12.60;80.70
60313;DHT22;46158;52.850;6.970;2022-12-10T15:09:55;12.60;80.70
60313;DHT22;46158;52.850;6.970;2022-12-10T15:15:18;12.60;79.20
60313;DHT22;46158;52.850;6.970;2022-12-10T15:20:48;12.60;80.50
60313;DHT22;46158;52.850;6.970;2022-12-10T15:25:50;12.60;80.60
60313;DHT22;46158;52.850;6.970;2022-12-10T15:28:32;12.60;80.70
60313;DHT22;46158;52.850;6.970;2022-12-10T15:31:11;12.60;80.70
60313;DHT22;46158;52.850;6.970;2022-12-10T15:33:45;12.60;80.70
60313;DHT22;46158;52.850;6.970;2022-12-10T15:36:22;12.60;80.70
60313;DHT22;46158;52.850;6.970;2022-12-10T15:38:50;12.60;80.60
60313;DHT22;46158;52.850;6.970;2022-12-10T15:44:02;12.60;80.60
60313;DHT22;46158;52.850;6.970;2022-12-10T15:46:28;12.60;80.50
60313;DHT22;46158;52.850;6.970;2022-12-10T15:48:54;12.60;80.40
60313;DHT22;46158;52.850;6.970;2022-12-10T15:51:19;12.60;80.30
60313;DHT22;46158;52.850;6.970;2022-12-10T15:53:45;12.60;80.20
60313;DHT22;46158;52.850;6.970;2022-12-10T15:56:11;12.60;80.10
60313;DHT22;46158;52.850;6.970;2022-12-10T15:58:36;12.60;80.00
60313;DHT22;46158;52.850;6.970;2022-12-10T16:01:02;12.60;80.00
60313;DHT22;46158;52.850;6.970;2022-12-10T16:03:28;12.60;79.90
60313;DHT22;46158;52.850;6.970;2022-12-10T16:05:54;12.60;79.90
60313;DHT22;46158;52.850;6.970;2022-12-10T16:08:21;12.60;79.80
60313;DHT22;46158;52.850;6.970;2022-12-10T16:10:50;12.60;79.80
60313;DHT22;46158;52.850;6.970;2022-12-10T16:13:17;12.60;79.70
60313;DHT22;46158;52.850;6.970;2022-12-10T16:15:45;12.60;79.70
60313;DHT22;46158;52.850;6.970;2022-12-10T16:18:11;12.60;79.60
60313;DHT22;46158;52.850;6.970;2022-12-10T16:20:37;12.60;79.60
60313;DHT22;46158;52.850;6.970;2022-12-10T16:23:03;12.60;79.70
60313;DHT22;46158;52.850;6.970;2022-12-10T16:25:31;12.60;79.70
60313;DHT22;46158;52.850;6.970;2022-12-10T16:27:58;12.60;79.70
60313;DHT22;46158;52.850;6.970;2022-12-10T16:30:25;12.60;79.70
60313;DHT22;46158;52.850;6.970;2022-12-10T16:32:53;12.60;79.60
60313;DHT22;46158;52.850;6.970;2022-12-10T16:35:20;12.60;79.40
60313;DHT22;46158;52.850;6.970;2022-12-10T16:37:46;12.60;79.40
60313;DHT22;46158;52.850;6.970;2022-12-10T16:40:14;12.60;79.30
60313;DHT22;46158;52.850;6.970;2022-12-10T16:42:40;12.50;79.40
60313;DHT22;46158;52.850;6.970;2022-12-10T16:45:13;12.50;79.40
60313;DHT22;46158;52.850;6.970;2022-12-10T16:47:39;12.50;79.50
60313;DHT22;46158;52.850;6.970;2022-12-10T16:50:05;12.60;79.60
60313;DHT22;46158;52.850;6.970;2022-12-10T16:52:30;12.50;79.50
60313;DHT22;46158;52.850;6.970;2022-12-10T16:54:56;12.50;79.50
60313;DHT22;46158;52.850;6.970;2022-12-10T16:57:22;12.50;79.40
60313;DHT22;46158;52.850;6.970;2022-12-10T16:59:47;12.50;79.40
60313;DHT22;46158;52.850;6.970;2022-12-10T17:02:14;12.50;79.40
60313;DHT22;46158;52.850;6.970;2022-12-10T17:04:40;12.50;79.30
60313;DHT22;46158;52.850;6.970;2022-12-10T17:07:07;12.50;79.30
60313;DHT22;46158;52.850;6.970;2022-12-10T17:09:33;12.50;79.20
60313;DHT22;46158;52.850;6.970;2022-12-10T17:11:58;12.50;79.20
60313;DHT22;46158;52.850;6.970;2022-12-10T17:14:26;12.50;79.10
60313;DHT22;46158;52.850;6.970;2022-12-10T17:16:53;12.50;79.10
60313;DHT22;46158;52.850;6.970;2022-12-10T17:19:20;12.50;79.10
60313;DHT22;46158;52.850;6.970;2022-12-10T17:21:46;12.50;79.00
60313;DHT22;46158;52.850;6.970;2022-12-10T17:24:12;12.50;79.70
60313;DHT22;46158;52.850;6.970;2022-12-10T17:26:39;12.50;78.90
60313;DHT22;46158;52.850;6.970;2022-12-10T17:29:08;12.50;78.90
60313;DHT22;46158;52.850;6.970;2022-12-10T17:31:36;12.50;78.80
60313;DHT22;46158;52.850;6.970;2022-12-10T17:34:02;12.50;78.90
60313;DHT22;46158;52.850;6.970;2022-12-10T17:36:29;12.50;78.70